Toronto, Ohio
Current Conditions -  °F | °C
As of 8:53 AM on Thursday 27 Nov 2014 (Local Time) from KHLG Reporting Station
Scattered Clouds Scattered Clouds  
Wind Chill: 24°   Ceiling: Unl
Heat Index: 31°   Visibility: 7mi
Dew Point: 27°   Wind: 7mph
Humidity: 85%   Direction: 260°W
Pressure: 30.06"   Gusts: NA
Location:  40.46°N, 80.61°W
Report Text: KHLG 271353Z 26006KT 7SM SCT055 M01/M03 A3006 RMK AO2 SLP193 T10061028
Loading
Personal Weather Stations






























Interactive Weather Map New forecast layout! Learn more

10-Day Weather Forecast

Advertisements
Track Severe Weather on mobile